Sharpes, Florida
Current Conditions -  °F | °C
As of 8:50 PM on Friday 24 Oct 2014 (Local Time) from KTIX Reporting Station
Broken Clouds Broken Clouds  
Wind Chill: 73°   Ceiling: 4500
Heat Index: 73°   Visibility: 7mi
Dew Point: 57°   Wind: 8mph
Humidity: 57%   Direction: 50°NE
Pressure: 29.94"   Gusts: NA
Location:  28.43°N, 80.76°W
Report Text: KTIX 250050Z 05007KT 7SM BKN045 23/14 A2994 RMK LAST
Loading
Personal Weather Stations






























Interactive Weather Map
Tropical Storm Tracking
New forecast layout! Learn more

10-Day Weather Forecast

Advertisements
Track Severe Weather on mobile